Time;durP1;ratioP1;P1;durP2;ratioP2;P2;SDS_P1;SDS_P2;PMS_P1;PMS_P2;Temp;Humidity;BMP_temperature;BMP_pressure;BME280_temperature;BME280_humidity;BME280_pressure;Samples;Min_cycle;Max_cycle;Signal;HPM_P1;HPM_P2
2022/04/12 00:00:58;;;;;;;;;;;;;;;9.79;37.34;92648.03;2057899;69;20132;-70
2022/04/12 00:03:23;;;;;;;;;;;;;;;9.80;37.37;92663.56;2057756;69;20058;-71
2022/04/12 00:05:49;;;;;;;;;;;;;;;9.09;41.02;92651.34;2057629;69;20572;-68
2022/04/12 00:08:15;;;;;;;;;;;;;;;9.53;39.10;92644.31;2057006;69;20571;-69
2022/04/12 00:10:40;;;;;;;;;;;;;;;9.27;40.56;92654.59;2057352;69;20078;-68
2022/04/12 00:13:06;;;;;;;;;;;;;;;9.36;39.81;92650.97;2057682;69;20042;-68
2022/04/12 00:15:31;;;;;;;;;;;;;;;9.48;39.53;92645.38;2057637;69;20147;-70
2022/04/12 00:20:42;;;;;;;;;;;;;;;9.67;37.49;92650.13;2058083;69;20510;-68
2022/04/12 00:23:08;;;;;;;;;;;;;;;9.72;37.03;92637.78;2057916;69;20046;-67
2022/04/12 00:25:34;;;;;;;;;;;;;;;9.63;37.75;92628.09;2057869;69;20156;-67
2022/04/12 00:27:59;;;;;;;;;;;;;;;9.72;37.49;92623.00;2057862;69;20062;-68
2022/04/12 00:30:27;;;;;;;;;;;;;;;9.77;36.66;92633.88;2057864;69;20142;-68
2022/04/12 00:32:52;;;;;;;;;;;;;;;9.85;37.00;92636.44;2057606;69;20069;-69
2022/04/12 00:35:19;;;;;;;;;;;;;;;9.78;36.99;92621.28;2057721;69;20051;-68
2022/04/12 00:37:44;;;;;;;;;;;;;;;9.92;36.36;92627.06;2055650;69;20137;-68
2022/04/12 00:40:10;;;;;;;;;;;;;;;9.83;36.96;92627.88;2057661;69;20553;-70
2022/04/12 00:42:36;;;;;;;;;;;;;;;9.65;37.61;92631.03;2058119;69;20426;-68
2022/04/12 00:45:02;;;;;;;;;;;;;;;9.63;38.79;92627.38;2057593;69;20096;-70
2022/04/12 00:47:28;;;;;;;;;;;;;;;9.54;38.79;92628.94;2058187;69;20052;-69
2022/04/12 00:49:53;;;;;;;;;;;;;;;9.39;39.56;92623.72;2057877;69;20062;-69
2022/04/12 00:52:19;;;;;;;;;;;;;;;9.26;39.99;92627.84;2058030;69;20042;-70
2022/04/12 00:54:45;;;;;;;;;;;;;;;9.30;39.25;92628.13;2057838;69;20128;-68
2022/04/12 00:57:11;;;;;;;;;;;;;;;9.27;39.07;92632.13;2057819;69;20148;-69
2022/04/12 00:59:37;;;;;;;;;;;;;;;9.21;39.50;92631.75;2058079;69;20049;-68
2022/04/12 01:02:05;;;;;;;;;;;;;;;9.03;40.77;92625.69;2057721;69;20504;-68
2022/04/12 01:04:32;;;;;;;;;;;;;;;8.68;41.44;92624.75;2057760;69;20112;-68
2022/04/12 01:06:58;;;;;;;;;;;;;;;9.03;40.88;92634.09;2057742;69;20408;-68
2022/04/12 01:09:26;;;;;;;;;;;;;;;8.83;41.61;92633.50;2057170;69;20056;-68
2022/04/12 01:11:52;;;;;;;;;;;;;;;8.86;41.26;92621.06;2057728;69;20074;-68
2022/04/12 01:14:17;;;;;;;;;;;;;;;8.93;40.63;92627.06;2057937;69;20047;-70
2022/04/12 01:16:43;;;;;;;;;;;;;;;8.87;41.01;92627.41;2056941;69;20056;-69
2022/04/12 01:19:08;;;;;;;;;;;;;;;8.89;41.09;92636.00;2057646;69;20471;-68
2022/04/12 01:21:46;;;;;;;;;;;;;;;8.68;41.66;92633.91;2057595;69;20513;-68
2022/04/12 01:24:12;;;;;;;;;;;;;;;8.64;41.05;92648.38;2057469;69;20086;-71
2022/04/12 01:26:38;;;;;;;;;;;;;;;8.59;41.41;92654.34;2057598;69;20518;-69
2022/04/12 01:29:04;;;;;;;;;;;;;;;8.40;43.27;92652.38;2057980;69;20156;-71
2022/04/12 01:31:29;;;;;;;;;;;;;;;8.56;42.42;92647.84;2057125;69;20227;-70
2022/04/12 01:33:55;;;;;;;;;;;;;;;8.52;42.66;92644.78;2057624;69;20516;-70
2022/04/12 01:36:20;;;;;;;;;;;;;;;8.63;42.29;92640.59;2057317;69;20203;-69
2022/04/12 01:38:46;;;;;;;;;;;;;;;8.32;43.03;92632.91;2057081;69;20149;-69
2022/04/12 01:41:12;;;;;;;;;;;;;;;8.30;42.41;92634.84;2057374;69;20090;-70
2022/04/12 01:43:38;;;;;;;;;;;;;;;8.31;43.12;92633.50;2057457;69;20050;-70
2022/04/12 01:46:03;;;;;;;;;;;;;;;8.28;44.11;92626.28;2057592;69;20509;-69
2022/04/12 01:48:29;;;;;;;;;;;;;;;8.19;43.41;92635.47;2057387;69;20062;-69
2022/04/12 01:50:55;;;;;;;;;;;;;;;8.23;42.74;92632.94;2057389;69;20478;-71
2022/04/12 01:53:20;;;;;;;;;;;;;;;8.14;43.18;92628.84;2055340;69;20054;-69
2022/04/12 01:55:46;;;;;;;;;;;;;;;8.36;42.41;92629.63;2056782;69;20217;-70
2022/04/12 01:58:11;;;;;;;;;;;;;;;8.26;42.96;92628.94;2057255;69;20182;-71
2022/04/12 02:00:37;;;;;;;;;;;;;;;7.93;44.07;92631.59;2057599;69;20062;-70
2022/04/12 02:03:03;;;;;;;;;;;;;;;7.91;44.47;92629.38;2057380;69;20098;-70
2022/04/12 02:05:29;;;;;;;;;;;;;;;7.87;44.80;92638.25;2057884;69;20494;-69
2022/04/12 02:07:54;;;;;;;;;;;;;;;8.05;43.52;92635.22;2057509;69;20054;-70
2022/04/12 02:10:21;;;;;;;;;;;;;;;7.97;43.54;92641.03;2057702;69;20046;-70
2022/04/12 02:12:47;;;;;;;;;;;;;;;8.19;42.90;92641.06;2057851;69;20046;-70
2022/04/12 02:15:12;;;;;;;;;;;;;;;8.11;41.46;92644.06;2058358;69;20509;-69
2022/04/12 02:17:38;;;;;;;;;;;;;;;8.33;41.23;92636.44;2058623;69;20053;-68
2022/04/12 02:20:04;;;;;;;;;;;;;;;8.31;41.17;92641.91;2057823;69;20054;-68
2022/04/12 02:22:29;;;;;;;;;;;;;;;7.38;45.47;92640.44;2057463;69;20145;-69
2022/04/12 02:24:54;;;;;;;;;;;;;;;7.83;43.61;92646.38;2058197;69;20046;-70
2022/04/12 02:27:20;;;;;;;;;;;;;;;7.87;43.51;92643.84;2058030;69;20140;-72
2022/04/12 02:29:45;;;;;;;;;;;;;;;7.69;43.76;92645.38;2058429;69;20088;-70
2022/04/12 02:32:11;;;;;;;;;;;;;;;7.75;43.93;92648.63;2058630;69;20169;-70
2022/04/12 02:34:36;;;;;;;;;;;;;;;7.65;44.17;92647.88;2058548;69;20124;-72
2022/04/12 02:37:02;;;;;;;;;;;;;;;7.79;43.35;92640.50;2058322;69;20065;-72
2022/04/12 02:39:27;;;;;;;;;;;;;;;7.98;42.12;92639.69;2058433;69;20477;-70
2022/04/12 02:41:53;;;;;;;;;;;;;;;7.84;42.84;92639.44;2058114;69;20532;-71
2022/04/12 02:44:18;;;;;;;;;;;;;;;8.02;41.61;92636.44;2058272;69;20054;-70
2022/04/12 02:46:43;;;;;;;;;;;;;;;8.25;40.00;92628.22;2058263;69;20084;-70
2022/04/12 02:49:09;;;;;;;;;;;;;;;8.06;41.21;92628.28;2058664;69;20049;-69
2022/04/12 02:51:34;;;;;;;;;;;;;;;8.08;40.75;92639.66;2058549;69;20054;-70
2022/04/12 02:54:00;;;;;;;;;;;;;;;7.76;42.55;92632.53;2057126;69;20062;-70
2022/04/12 02:56:26;;;;;;;;;;;;;;;7.75;42.92;92634.59;2058198;69;20065;-70
2022/04/12 02:58:51;;;;;;;;;;;;;;;7.90;41.76;92639.88;2058146;69;20095;-68
2022/04/12 03:01:16;;;;;;;;;;;;;;;7.82;42.57;92644.91;2058571;69;20077;-70
2022/04/12 03:03:42;;;;;;;;;;;;;;;7.57;43.86;92645.28;2058160;69;20108;-69
2022/04/12 03:06:08;;;;;;;;;;;;;;;7.83;42.12;92642.81;2058369;69;20066;-69
2022/04/12 03:08:33;;;;;;;;;;;;;;;7.65;42.38;92647.88;2058459;69;20602;-69
2022/04/12 03:10:58;;;;;;;;;;;;;;;7.45;43.40;92643.66;2058277;69;20148;-70
2022/04/12 03:13:24;;;;;;;;;;;;;;;7.67;42.66;92636.09;2058358;69;20054;-69
2022/04/12 03:15:49;;;;;;;;;;;;;;;7.82;42.12;92630.16;2058373;69;20061;-70
2022/04/12 03:18:16;;;;;;;;;;;;;;;7.93;41.44;92629.53;2058609;69;20202;-70
2022/04/12 03:20:42;;;;;;;;;;;;;;;7.74;41.61;92624.72;2058469;69;20086;-71
2022/04/12 03:23:08;;;;;;;;;;;;;;;7.92;40.19;92621.69;2058124;69;20045;-71
2022/04/12 03:25:33;;;;;;;;;;;;;;;7.87;41.76;92612.28;2057888;69;20054;-69
2022/04/12 03:27:59;;;;;;;;;;;;;;;7.73;42.53;92616.91;2057510;69;20046;-70
2022/04/12 03:30:24;;;;;;;;;;;;;;;7.75;41.62;92623.41;2058298;69;20457;-70
2022/04/12 03:32:50;;;;;;;;;;;;;;;7.67;41.89;92622.09;2058465;69;20050;-69
2022/04/12 03:35:15;;;;;;;;;;;;;;;7.88;40.68;92620.13;2058068;69;20053;-70
2022/04/12 03:37:41;;;;;;;;;;;;;;;7.89;40.25;92620.84;2058388;69;20072;-69
2022/04/12 03:40:06;;;;;;;;;;;;;;;7.83;40.79;92614.81;2058443;69;20526;-70
2022/04/12 03:42:32;;;;;;;;;;;;;;;7.98;40.11;92614.47;2058326;69;20596;-69
2022/04/12 03:44:57;;;;;;;;;;;;;;;7.82;41.14;92613.34;2058067;69;20046;-69
2022/04/12 03:47:22;;;;;;;;;;;;;;;7.75;41.42;92611.47;2058347;69;20058;-69
2022/04/12 03:49:48;;;;;;;;;;;;;;;7.78;41.38;92616.59;2057688;69;20623;-69
2022/04/12 03:52:15;;;;;;;;;;;;;;;8.00;40.09;92617.41;2057831;69;20053;-69
2022/04/12 03:54:40;;;;;;;;;;;;;;;7.91;39.53;92626.56;2057955;69;20053;-70
2022/04/12 03:57:06;;;;;;;;;;;;;;;7.92;40.62;92621.69;2058025;69;20073;-69
2022/04/12 03:59:31;;;;;;;;;;;;;;;7.94;40.26;92633.06;2058512;69;20065;-69
2022/04/12 04:01:57;;;;;;;;;;;;;;;7.93;40.71;92631.59;2058208;69;20066;-68
2022/04/12 04:04:22;;;;;;;;;;;;;;;7.93;40.34;92628.81;2058619;69;20046;-68
2022/04/12 04:06:48;;;;;;;;;;;;;;;7.78;41.44;92622.19;2058331;69;20487;-69
2022/04/12 04:09:15;;;;;;;;;;;;;;;7.68;41.31;92629.16;2058113;69;20096;-70
2022/04/12 04:11:40;;;;;;;;;;;;;;;7.56;42.23;92629.78;2058079;69;20162;-69
2022/04/12 04:14:09;;;;;;;;;;;;;;;7.42;43.19;92628.03;2058514;69;20049;-70
2022/04/12 04:16:35;;;;;;;;;;;;;;;7.43;42.60;92621.88;2057663;69;20097;-70
2022/04/12 04:19:00;;;;;;;;;;;;;;;7.33;43.49;92624.69;2057752;69;20581;-70
2022/04/12 04:21:26;;;;;;;;;;;;;;;7.10;44.85;92625.16;2057556;69;20061;-70
2022/04/12 04:23:51;;;;;;;;;;;;;;;7.23;43.72;92632.34;2058150;69;20082;-69
2022/04/12 04:26:16;;;;;;;;;;;;;;;7.17;43.87;92631.19;2057169;69;20522;-69
2022/04/12 04:28:44;;;;;;;;;;;;;;;7.10;43.93;92625.16;2058276;69;20050;-69
2022/04/12 04:31:10;;;;;;;;;;;;;;;7.05;44.35;92625.44;2058324;69;20042;-69
2022/04/12 04:33:35;;;;;;;;;;;;;;;6.91;44.53;92627.19;2058258;69;20123;-69
2022/04/12 04:36:01;;;;;;;;;;;;;;;6.93;44.65;92632.97;2058322;69;20074;-70
2022/04/12 04:38:26;;;;;;;;;;;;;;;6.93;44.18;92639.28;2058259;69;20437;-70
2022/04/12 04:40:52;;;;;;;;;;;;;;;6.88;44.85;92641.06;2058536;69;20084;-69
2022/04/12 04:43:17;;;;;;;;;;;;;;;6.76;45.00;92654.16;2058171;69;20054;-70
2022/04/12 04:45:45;;;;;;;;;;;;;;;6.70;45.39;92648.13;2058276;69;20057;-69
2022/04/12 04:48:11;;;;;;;;;;;;;;;6.76;45.49;92653.41;2058586;69;20054;-70
2022/04/12 04:50:37;;;;;;;;;;;;;;;6.82;44.96;92649.00;2058054;69;20442;-71
2022/04/12 04:53:03;;;;;;;;;;;;;;;6.72;46.18;92655.91;2057385;69;20053;-70
2022/04/12 04:55:29;;;;;;;;;;;;;;;6.91;44.88;92663.59;2058259;69;20129;-70
2022/04/12 04:57:55;;;;;;;;;;;;;;;6.87;44.70;92661.97;2057945;69;20137;-69
2022/04/12 05:00:22;;;;;;;;;;;;;;;6.91;45.25;92655.19;2057891;69;20136;-70
2022/04/12 05:02:49;;;;;;;;;;;;;;;6.73;45.19;92660.91;2058534;69;20433;-71
2022/04/12 05:05:14;;;;;;;;;;;;;;;6.64;46.09;92661.63;2058474;69;20046;-69
2022/04/12 05:07:42;;;;;;;;;;;;;;;6.84;43.97;92656.81;2057440;69;20049;-71
2022/04/12 05:10:08;;;;;;;;;;;;;;;7.10;43.05;92664.34;2058319;69;20744;-71
2022/04/12 05:12:34;;;;;;;;;;;;;;;7.27;42.06;92660.63;2056873;69;20056;-71
2022/04/12 05:14:59;;;;;;;;;;;;;;;7.26;42.31;92666.84;2058361;69;20097;-70
2022/04/12 05:17:25;;;;;;;;;;;;;;;7.12;42.93;92664.47;2056095;69;20046;-68
2022/04/12 05:19:51;;;;;;;;;;;;;;;7.08;43.40;92664.19;2054517;69;20192;-69
2022/04/12 05:22:17;;;;;;;;;;;;;;;7.29;42.25;92674.78;2056123;69;20057;-69
2022/04/12 05:24:43;;;;;;;;;;;;;;;7.35;42.32;92658.41;2057369;69;20120;-70
2022/04/12 05:27:09;;;;;;;;;;;;;;;7.32;42.68;92673.59;2057711;69;20120;-71
2022/04/12 05:29:35;;;;;;;;;;;;;;;7.26;43.29;92675.22;2057037;69;20054;-69
2022/04/12 05:32:00;;;;;;;;;;;;;;;7.14;43.11;92675.06;2057289;69;20042;-72
2022/04/12 05:34:25;;;;;;;;;;;;;;;7.42;41.82;92673.59;2057944;69;20049;-71
2022/04/12 05:36:51;;;;;;;;;;;;;;;7.46;41.98;92673.88;2057988;69;20062;-71
2022/04/12 05:39:16;;;;;;;;;;;;;;;7.61;41.91;92670.78;2057713;69;20046;-70
2022/04/12 05:41:42;;;;;;;;;;;;;;;7.56;41.17;92673.84;2057707;69;20054;-71
2022/04/12 05:44:07;;;;;;;;;;;;;;;7.30;42.07;92675.53;2057583;69;20053;-72
2022/04/12 05:46:33;;;;;;;;;;;;;;;7.29;42.64;92672.00;2057751;69;20058;-70
2022/04/12 05:48:58;;;;;;;;;;;;;;;7.46;42.66;92670.34;2058937;69;20050;-71
2022/04/12 05:51:24;;;;;;;;;;;;;;;7.59;41.58;92669.88;2058571;69;20054;-70
2022/04/12 05:53:49;;;;;;;;;;;;;;;7.56;41.41;92677.41;2058568;69;20101;-71
2022/04/12 05:56:15;;;;;;;;;;;;;;;7.48;42.43;92678.91;2058469;69;20046;-71
2022/04/12 05:58:40;;;;;;;;;;;;;;;7.48;42.67;92679.63;2058673;69;20061;-72
2022/04/12 06:01:06;;;;;;;;;;;;;;;7.42;43.05;92686.84;2058592;69;20116;-70
2022/04/12 06:03:31;;;;;;;;;;;;;;;7.60;42.07;92696.56;2058721;69;20088;-71
2022/04/12 06:05:57;;;;;;;;;;;;;;;7.57;41.77;92690.09;2057707;69;20048;-72
2022/04/12 06:08:22;;;;;;;;;;;;;;;7.52;42.94;92699.53;2057968;69;20053;-72
2022/04/12 06:10:47;;;;;;;;;;;;;;;7.75;41.60;92695.53;2058441;69;20106;-71
2022/04/12 06:13:13;;;;;;;;;;;;;;;7.52;42.29;92699.53;2058193;69;20054;-70
2022/04/12 06:15:39;;;;;;;;;;;;;;;7.56;42.97;92699.84;2058311;69;20418;-69
2022/04/12 06:18:04;;;;;;;;;;;;;;;7.42;43.92;92695.25;2058495;69;20050;-69
2022/04/12 06:20:30;;;;;;;;;;;;;;;7.60;43.45;92690.97;2055174;69;20494;-69
2022/04/12 06:22:55;;;;;;;;;;;;;;;7.59;43.08;92684.63;2058044;69;20053;-70
2022/04/12 06:25:21;;;;;;;;;;;;;;;7.68;43.07;92685.94;2056641;69;20206;-70
2022/04/12 06:27:50;;;;;;;;;;;;;;;7.67;42.89;92692.88;2058052;69;20136;-71
2022/04/12 06:30:17;;;;;;;;;;;;;;;7.31;43.02;92679.78;2058149;69;20135;-71
2022/04/12 06:32:43;;;;;;;;;;;;;;;7.32;43.42;92693.19;2058270;69;20096;-70
2022/04/12 06:35:09;;;;;;;;;;;;;;;7.58;42.04;92682.41;2058048;69;20137;-71
2022/04/12 06:37:36;;;;;;;;;;;;;;;7.45;42.77;92689.22;2058323;69;20554;-70
2022/04/12 06:40:02;;;;;;;;;;;;;;;7.73;42.55;92684.91;2058186;69;20054;-71
2022/04/12 06:42:28;;;;;;;;;;;;;;;7.71;42.39;92684.75;2058688;69;20048;-72
2022/04/12 06:44:54;;;;;;;;;;;;;;;7.95;43.03;92680.13;2058544;69;20485;-70
2022/04/12 06:47:20;;;;;;;;;;;;;;;8.04;43.46;92682.16;2058637;69;20061;-69
2022/04/12 06:49:46;;;;;;;;;;;;;;;8.44;42.29;92680.72;2058852;69;20057;-71
2022/04/12 06:52:13;;;;;;;;;;;;;;;8.42;41.99;92674.94;2058539;69;20136;-71
2022/04/12 06:54:38;;;;;;;;;;;;;;;8.94;41.70;92673.50;2058858;69;20053;-71
2022/04/12 06:57:04;;;;;;;;;;;;;;;9.74;40.73;92679.31;2055320;69;20050;-70
2022/04/12 06:59:30;;;;;;;;;;;;;;;9.82;40.82;92677.03;2058556;69;20201;-71
2022/04/12 07:01:55;;;;;;;;;;;;;;;10.45;40.52;92674.59;2058569;69;20054;-69
2022/04/12 07:04:21;;;;;;;;;;;;;;;10.31;40.97;92675.19;2058779;69;20046;-71
2022/04/12 07:06:47;;;;;;;;;;;;;;;10.89;38.75;92674.44;2058389;69;20057;-71
2022/04/12 07:09:18;;;;;;;;;;;;;;;10.74;38.44;92663.69;2058000;69;20053;-70
2022/04/12 07:11:44;;;;;;;;;;;;;;;11.52;37.31;92668.16;2058105;69;20215;-72
2022/04/12 07:14:10;;;;;;;;;;;;;;;11.22;37.39;92662.22;2058713;69;20062;-70
2022/04/12 07:16:35;;;;;;;;;;;;;;;11.95;36.66;92657.19;2058713;69;20053;-71
2022/04/12 07:19:01;;;;;;;;;;;;;;;11.90;37.45;92661.88;2058593;69;20057;-70
2022/04/12 07:21:29;;;;;;;;;;;;;;;13.21;34.44;92660.97;2058650;69;20049;-71
2022/04/12 07:23:54;;;;;;;;;;;;;;;13.16;34.26;92653.66;2058614;69;20050;-70
2022/04/12 07:26:20;;;;;;;;;;;;;;;13.89;32.95;92662.22;2058711;69;20054;-71
2022/04/12 07:28:45;;;;;;;;;;;;;;;13.90;32.70;92655.19;2058528;69;20497;-69
2022/04/12 07:31:11;;;;;;;;;;;;;;;12.79;34.41;92653.91;2057828;69;20092;-69
2022/04/12 07:33:36;;;;;;;;;;;;;;;13.10;33.56;92659.03;2058611;69;20489;-70
2022/04/12 07:36:02;;;;;;;;;;;;;;;13.97;33.08;92645.63;2058608;69;20144;-71
2022/04/12 07:38:27;;;;;;;;;;;;;;;13.32;33.76;92644.56;2058461;69;20061;-72
2022/04/12 07:40:53;;;;;;;;;;;;;;;13.94;33.08;92638.38;2058633;69;20074;-71
2022/04/12 07:43:20;;;;;;;;;;;;;;;13.81;32.78;92635.63;2058527;69;20122;-71
2022/04/12 07:45:45;;;;;;;;;;;;;;;14.27;32.57;92631.41;2058665;69;20486;-71
2022/04/12 07:48:12;;;;;;;;;;;;;;;14.54;33.17;92638.31;2058769;69;20056;-73
2022/04/12 07:50:38;;;;;;;;;;;;;;;15.48;31.05;92626.78;2058402;69;20140;-70
2022/04/12 07:53:04;;;;;;;;;;;;;;;14.63;31.13;92626.69;2058555;69;20054;-69
2022/04/12 07:55:29;;;;;;;;;;;;;;;14.96;31.30;92630.97;2058743;69;20421;-69
2022/04/12 07:57:55;;;;;;;;;;;;;;;14.86;32.09;92627.69;2058570;69;20124;-69
2022/04/12 08:00:20;;;;;;;;;;;;;;;15.06;32.38;92625.00;2058667;69;20517;-69
2022/04/12 08:02:46;;;;;;;;;;;;;;;15.31;31.85;92629.59;2058622;69;20059;-70
2022/04/12 08:05:11;;;;;;;;;;;;;;;15.88;30.66;92623.44;2058574;69;20112;-71
2022/04/12 08:07:37;;;;;;;;;;;;;;;15.56;30.36;92617.16;2057858;69;20062;-69
2022/04/12 08:10:02;;;;;;;;;;;;;;;15.62;29.79;92628.75;2057909;69;20160;-70
2022/04/12 08:12:28;;;;;;;;;;;;;;;15.68;29.70;92612.00;2058463;69;20045;-70
2022/04/12 08:14:53;;;;;;;;;;;;;;;16.64;30.32;92621.41;2058616;69;20050;-72
2022/04/12 08:17:19;;;;;;;;;;;;;;;17.58;26.96;92614.06;2058619;69;20556;-69
2022/04/12 08:19:44;;;;;;;;;;;;;;;16.52;27.46;92610.28;2058552;69;20062;-71
2022/04/12 08:22:11;;;;;;;;;;;;;;;17.61;27.11;92598.50;2058474;69;20050;-69
2022/04/12 08:24:36;;;;;;;;;;;;;;;18.09;27.98;92610.03;2058347;69;20065;-69
2022/04/12 08:27:02;;;;;;;;;;;;;;;18.26;26.89;92599.88;2058436;69;20073;-70
2022/04/12 08:29:28;;;;;;;;;;;;;;;18.34;26.83;92597.28;2058486;69;20112;-69
2022/04/12 08:31:54;;;;;;;;;;;;;;;18.81;26.52;92595.81;2058384;69;20107;-72
2022/04/12 08:34:20;;;;;;;;;;;;;;;19.36;25.04;92590.91;2058250;69;20050;-73
2022/04/12 08:36:45;;;;;;;;;;;;;;;19.00;24.35;92582.81;2057831;69;20093;-69
2022/04/12 08:39:13;;;;;;;;;;;;;;;19.18;25.50;92576.88;2058331;69;20053;-73
2022/04/12 08:41:40;;;;;;;;;;;;;;;20.25;24.56;92578.88;2058451;69;20061;-74
2022/04/12 08:44:06;;;;;;;;;;;;;;;19.73;24.51;92586.88;2058586;69;20057;-72
2022/04/12 08:46:33;;;;;;;;;;;;;;;20.40;25.67;92579.19;2058515;69;20185;-74
2022/04/12 08:48:58;;;;;;;;;;;;;;;19.97;23.47;92583.91;2058565;69;20616;-70
2022/04/12 08:51:27;;;;;;;;;;;;;;;18.42;24.87;92571.16;2058420;69;20072;-72
2022/04/12 08:53:53;;;;;;;;;;;;;;;19.82;25.88;92577.13;2057832;69;20504;-70
2022/04/12 08:56:19;;;;;;;;;;;;;;;19.70;24.16;92573.94;2058449;69;20050;-69
2022/04/12 08:58:44;;;;;;;;;;;;;;;20.39;24.85;92567.03;2058686;69;20116;-70
2022/04/12 09:01:10;;;;;;;;;;;;;;;20.60;24.20;92561.78;2058141;69;20053;-72
2022/04/12 09:03:35;;;;;;;;;;;;;;;21.23;23.37;92557.31;2058388;69;20148;-72
2022/04/12 09:06:02;;;;;;;;;;;;;;;20.76;22.42;92550.69;2057813;69;20049;-72
2022/04/12 09:08:28;;;;;;;;;;;;;;;21.26;23.65;92553.09;2058285;69;20049;-72
2022/04/12 09:10:58;;;;;;;;;;;;;;;22.06;22.41;92549.47;2058336;69;20057;-73
2022/04/12 09:13:24;;;;;;;;;;;;;;;21.79;23.58;92551.91;2058263;69;20056;-71
2022/04/12 09:15:50;;;;;;;;;;;;;;;22.28;22.06;92543.38;2058493;69;20062;-72
2022/04/12 09:18:29;;;;;;;;;;;;;;;23.08;21.13;92550.91;2058446;69;20199;-70
2022/04/12 09:20:56;;;;;;;;;;;;;;;23.03;21.64;92549.44;2058402;69;20054;-70
2022/04/12 09:23:22;;;;;;;;;;;;;;;22.25;22.98;92539.75;2058128;69;20097;-72
2022/04/12 09:25:54;;;;;;;;;;;;;;;22.44;21.19;92534.28;2058356;69;20404;-72
2022/04/12 09:28:20;;;;;;;;;;;;;;;23.27;20.79;92537.50;2057894;69;20138;-69
2022/04/12 09:30:45;;;;;;;;;;;;;;;22.64;21.34;92530.97;2058494;69;20046;-73
2022/04/12 09:33:10;;;;;;;;;;;;;;;23.14;20.61;92533.78;2058360;69;20581;-71
2022/04/12 09:35:37;;;;;;;;;;;;;;;23.65;20.85;92527.88;2058322;69;20415;-70
2022/04/12 09:38:03;;;;;;;;;;;;;;;23.08;19.87;92520.06;2058216;69;20077;-68
2022/04/12 09:40:28;;;;;;;;;;;;;;;23.62;21.16;92527.09;2058272;69;20058;-69
2022/04/12 09:42:55;;;;;;;;;;;;;;;24.01;21.17;92525.31;2057854;69;20053;-69
2022/04/12 09:45:24;;;;;;;;;;;;;;;24.28;19.40;92514.72;2053521;69;20418;-72
2022/04/12 09:47:51;;;;;;;;;;;;;;;22.00;20.40;92500.66;2055854;69;20484;-70
2022/04/12 09:50:19;;;;;;;;;;;;;;;23.71;21.24;92508.53;2057304;69;20079;-68
2022/04/12 09:52:52;;;;;;;;;;;;;;;24.27;19.63;92509.66;2057928;69;20050;-71
2022/04/12 09:55:47;;;;;;;;;;;;;;;24.82;18.77;92502.09;2057928;69;20062;-70
2022/04/12 09:58:14;;;;;;;;;;;;;;;25.72;18.99;92493.72;2056626;69;20093;-70
2022/04/12 10:00:41;;;;;;;;;;;;;;;24.71;18.31;92491.25;2058177;69;20574;-74
2022/04/12 10:03:08;;;;;;;;;;;;;;;24.65;19.00;92482.56;2058056;69;20049;-71
2022/04/12 10:05:34;;;;;;;;;;;;;;;24.47;19.46;92483.94;2057973;69;20124;-68
2022/04/12 10:08:01;;;;;;;;;;;;;;;24.80;19.96;92481.22;2057925;69;20515;-73
2022/04/12 10:10:27;;;;;;;;;;;;;;;25.76;18.52;92473.56;2057950;69;20482;-73
2022/04/12 10:12:53;;;;;;;;;;;;;;;24.92;18.80;92466.13;2057980;69;20089;-70
2022/04/12 10:15:19;;;;;;;;;;;;;;;25.98;19.79;92469.97;2058199;69;20070;-72
2022/04/12 10:17:46;;;;;;;;;;;;;;;25.26;18.49;92468.44;2058162;69;20057;-69
2022/04/12 10:20:12;;;;;;;;;;;;;;;25.13;19.67;92459.03;2058151;69;20067;-69
2022/04/12 10:22:38;;;;;;;;;;;;;;;23.89;19.44;92456.22;2057907;69;20078;-68
2022/04/12 10:25:04;;;;;;;;;;;;;;;25.76;18.27;92447.63;2057442;69;20564;-68
2022/04/12 10:27:31;;;;;;;;;;;;;;;26.27;17.64;92438.22;2057505;69;20140;-71
2022/04/12 10:30:26;;;;;;;;;;;;;;;25.80;17.20;92435.38;2057801;69;20050;-68
2022/04/12 10:33:03;;;;;;;;;;;;;;;25.00;18.33;92428.75;2049434;70;20078;-69
2022/04/12 10:35:29;;;;;;;;;;;;;;;26.80;17.57;92432.28;2048322;70;20591;-68
2022/04/12 10:37:57;;;;;;;;;;;;;;;26.71;17.95;92425.84;2050449;70;20046;-70
2022/04/12 10:40:24;;;;;;;;;;;;;;;27.28;16.35;92422.69;2050524;70;20118;-72
2022/04/12 10:42:49;;;;;;;;;;;;;;;28.14;16.12;92427.13;2049608;70;20055;-68
2022/04/12 10:45:15;;;;;;;;;;;;;;;26.75;17.93;92416.44;2050597;70;20062;-70
2022/04/12 10:47:42;;;;;;;;;;;;;;;27.74;18.07;92423.13;2051001;70;20067;-70
2022/04/12 10:50:11;;;;;;;;;;;;;;;28.25;17.04;92417.59;2050719;70;20953;-69
2022/04/12 10:52:42;;;;;;;;;;;;;;;29.00;17.36;92413.22;2049967;70;20082;-72
2022/04/12 10:55:15;;;;;;;;;;;;;;;29.88;15.63;92411.97;2050784;70;20396;-72
2022/04/12 10:57:41;;;;;;;;;;;;;;;29.86;15.10;92409.09;2048573;70;20220;-68
2022/04/12 11:00:14;;;;;;;;;;;;;;;29.94;15.20;92414.75;2047896;70;20146;-68
2022/04/12 11:03:00;;;;;;;;;;;;;;;31.73;14.32;92404.75;2050222;70;20043;-70
2022/04/12 11:05:37;;;;;;;;;;;;;;;33.93;14.23;92403.88;2050187;70;20046;-69
2022/04/12 11:08:14;;;;;;;;;;;;;;;34.42;11.43;92402.31;2050102;70;20086;-75
2022/04/12 11:10:40;;;;;;;;;;;;;;;36.52;11.25;92393.72;2057714;69;20153;-69
2022/04/12 11:13:07;;;;;;;;;;;;;;;36.34;11.75;92393.00;2057769;69;20180;-74
2022/04/12 11:15:34;;;;;;;;;;;;;;;37.73;11.07;92395.03;2055454;69;20102;-73
2022/04/12 11:18:13;;;;;;;;;;;;;;;38.21;10.10;92392.00;2056634;69;20438;-69
2022/04/12 11:20:43;;;;;;;;;;;;;;;38.88;9.74;92396.78;2057988;69;20108;-69
2022/04/12 11:23:10;;;;;;;;;;;;;;;40.62;9.87;92399.91;2057243;69;20052;-69
2022/04/12 11:25:45;;;;;;;;;;;;;;;39.26;9.02;92396.31;2057083;69;20054;-69
2022/04/12 11:28:14;;;;;;;;;;;;;;;39.95;8.99;92392.56;2056133;69;20046;-68
2022/04/12 11:30:40;;;;;;;;;;;;;;;38.13;10.19;92380.66;2056545;69;20073;-68
2022/04/12 11:33:08;;;;;;;;;;;;;;;41.16;9.06;92380.47;2056564;69;20119;-69
2022/04/12 11:35:36;;;;;;;;;;;;;;;42.20;7.81;92385.13;2056983;69;20070;-73
2022/04/12 11:38:05;;;;;;;;;;;;;;;43.18;7.57;92379.38;2056418;69;20085;-70
2022/04/12 11:40:31;;;;;;;;;;;;;;;37.99;9.38;92366.66;2054912;69;20153;-71
2022/04/12 11:42:56;;;;;;;;;;;;;;;40.64;7.92;92368.03;2055482;69;20051;-76
2022/04/12 11:45:32;;;;;;;;;;;;;;;38.21;9.73;92371.41;2056697;69;20145;-70
2022/04/12 11:47:58;;;;;;;;;;;;;;;41.44;7.91;92375.09;2055345;69;20062;-72
2022/04/12 11:50:23;;;;;;;;;;;;;;;42.34;8.28;92369.44;2055796;69;20061;-69
2022/04/12 11:52:49;;;;;;;;;;;;;;;40.97;8.87;92369.09;2056360;69;20163;-69
2022/04/12 11:55:14;;;;;;;;;;;;;;;43.27;8.17;92370.66;2056909;69;20089;-73
2022/04/12 11:57:40;;;;;;;;;;;;;;;43.85;7.76;92368.81;2058315;69;20138;-72
2022/04/12 12:00:07;;;;;;;;;;;;;;;43.52;7.05;92363.75;2057873;69;20141;-69
2022/04/12 12:02:35;;;;;;;;;;;;;;;44.58;6.91;92362.75;2056193;69;20152;-72
2022/04/12 12:05:03;;;;;;;;;;;;;;;43.64;7.28;92354.00;2058256;69;20050;-71
2022/04/12 12:07:29;;;;;;;;;;;;;;;44.16;6.73;92363.59;2057952;69;20101;-70
2022/04/12 12:09:56;;;;;;;;;;;;;;;44.48;7.41;92351.63;2058008;69;20402;-69
2022/04/12 12:12:30;;;;;;;;;;;;;;;45.60;6.16;92355.03;2058034;69;20571;-69
2022/04/12 12:14:56;;;;;;;;;;;;;;;45.49;7.09;92359.63;2058026;69;20101;-71
2022/04/12 12:17:24;;;;;;;;;;;;;;;44.88;7.39;92341.97;2056808;69;20197;-69
2022/04/12 12:19:50;;;;;;;;;;;;;;;42.14;6.23;92347.78;2057891;69;20058;-69
2022/04/12 12:22:17;;;;;;;;;;;;;;;45.44;6.92;92343.69;2055350;69;20062;-69
2022/04/12 12:24:49;;;;;;;;;;;;;;;45.60;5.76;92336.47;2056003;69;20144;-71
2022/04/12 12:27:25;;;;;;;;;;;;;;;42.85;5.97;92328.31;2056582;69;20422;-69
2022/04/12 12:29:50;;;;;;;;;;;;;;;39.31;7.35;92320.97;2056377;69;20051;-69
2022/04/12 12:32:17;;;;;;;;;;;;;;;40.99;7.22;92315.81;2057315;69;20046;-73
2022/04/12 12:34:44;;;;;;;;;;;;;;;40.81;6.77;92316.91;2056915;69;20130;-73
2022/04/12 12:37:11;;;;;;;;;;;;;;;41.99;6.58;92311.84;2057393;69;20077;-69
2022/04/12 12:39:39;;;;;;;;;;;;;;;38.60;7.98;92307.78;2057406;69;20046;-71
2022/04/12 12:42:05;;;;;;;;;;;;;;;43.52;7.24;92313.38;2057906;69;20058;-74
2022/04/12 12:44:37;;;;;;;;;;;;;;;43.41;5.73;92306.75;2056561;69;20042;-75
2022/04/12 12:47:04;;;;;;;;;;;;;;;44.50;6.54;92307.00;2056490;69;20070;-75
2022/04/12 12:49:36;;;;;;;;;;;;;;;45.77;6.00;92303.88;2058196;69;20073;-76
2022/04/12 12:52:06;;;;;;;;;;;;;;;45.08;6.70;92307.03;2055066;69;20142;-70